Time;durP1;ratioP1;P1;durP2;ratioP2;P2;SDS_P1;SDS_P2;PMS_P1;PMS_P2;Temp;Humidity;BMP_temperature;BMP_pressure;BME280_temperature;BME280_humidity;BME280_pressure;Samples;Min_cycle;Max_cycle;Signal;HPM_P1;HPM_P2
2024/03/24 00:01:04;;;;;;;;;;;;;;;;;;5023795;28;3347;-69
2024/03/24 00:03:29;;;;;;;;;;;;;;;;;;5025942;28;5117;-74
2024/03/24 00:05:54;;;;;;;;;;;;;;;;;;5026062;28;4516;-74
2024/03/24 00:08:20;;;;;;;;;;;;;;;;;;5023679;28;5087;-72
2024/03/24 00:10:45;;;;;;;;;;;;;;;;;;5023487;28;5272;-74
2024/03/24 00:13:10;;;;;;;;;;;;;;;;;;5028889;28;1939;-72
2024/03/24 00:15:36;;;;;;;;;;;;;;;;;;5028388;28;4911;-73
2024/03/24 00:18:01;;;;;;;;;;;;;;;;;;5017173;28;5227;-72
2024/03/24 00:20:26;;;;;;;;;;;;;;;;;;5029448;28;4636;-72
2024/03/24 00:22:52;;;;;;;;;;;;;;;;;;5025170;28;5039;-71
2024/03/24 00:25:17;;;;;;;;;;;;;;;;;;5021559;28;3340;-73
2024/03/24 00:27:43;;;;;;;;;;;;;;;;;;5028808;28;4847;-73
2024/03/24 00:30:09;;;;;;;;;;;;;;;;;;5023366;28;4956;-72
2024/03/24 00:32:34;;;;;;;;;;;;;;;;;;5020034;28;5106;-73
2024/03/24 00:34:59;;;;;;;;;;;;;;;;;;5025396;28;4656;-73
2024/03/24 00:37:25;;;;;;;;;;;;;;;;;;5019222;28;3444;-73
2024/03/24 00:39:52;;;;;;;;;;;;;;;;;;5013888;28;4931;-73
2024/03/24 00:42:18;;;;;;;;;;;;;;;;;;5020311;28;5119;-73
2024/03/24 00:44:43;;;;;;;;;;;;;;;;;;5017678;28;4668;-74
2024/03/24 00:47:08;;;;;;;;;;;;;;;;;;5023112;28;4567;-74
2024/03/24 00:49:34;;;;;;;;;;;;;;;;;;5021123;28;4672;-73
2024/03/24 00:51:59;;;;;;;;;;;;;;;;;;5018034;28;3411;-72
2024/03/24 00:54:24;;;;;;;;;;;;;;;;;;5021653;28;5058;-74
2024/03/24 00:56:50;;;;;;;;;;;;;;;;;;5020399;28;5022;-73
2024/03/24 00:59:15;;;;;;;;;;;;;;;;;;5021883;28;5159;-74
2024/03/24 01:01:40;;;;;;;;;;;;;;;;;;5016908;28;5700;-72
2024/03/24 01:04:06;;;;;;;;;;;;;;;;;;5020584;28;3406;-73
2024/03/24 01:06:32;;;;;;;;;;;;;;;;;;5022505;28;5014;-73
2024/03/24 01:08:57;;;;;;;;;;;;;;;;;;5021715;28;4776;-74
2024/03/24 01:11:22;;;;;;;;;;;;;;;;;;5020604;28;5247;-74
2024/03/24 01:13:48;;;;;;;;;;;;;;;;;;5018178;28;5258;-75
2024/03/24 01:16:14;;;;;;;;;;;;;;;;;;5018360;28;3603;-74
2024/03/24 01:18:39;;;;;;;;;;;;;;;;;;5024094;28;5222;-74
2024/03/24 01:21:06;;;;;;;;;;;;;;;;;;5020303;28;5203;-73
2024/03/24 01:23:32;;;;;;;;;;;;;;;;;;5021674;28;4946;-73
2024/03/24 01:25:57;;;;;;;;;;;;;;;;;;5021674;28;4521;-73
2024/03/24 01:28:22;;;;;;;;;;;;;;;;;;5023591;28;3361;-74
2024/03/24 01:30:48;;;;;;;;;;;;;;;;;;5020658;28;5044;-73
2024/03/24 01:33:13;;;;;;;;;;;;;;;;;;5013193;28;5096;-74
2024/03/24 01:35:44;;;;;;;;;;;;;;;;;;5016997;28;5050;-74
2024/03/24 01:38:10;;;;;;;;;;;;;;;;;;5020118;28;4696;-73
2024/03/24 01:40:35;;;;;;;;;;;;;;;;;;5026799;28;4998;-74
2024/03/24 01:43:00;;;;;;;;;;;;;;;;;;5022934;28;3431;-72
2024/03/24 01:45:26;;;;;;;;;;;;;;;;;;5027329;28;5090;-74
2024/03/24 01:47:51;;;;;;;;;;;;;;;;;;5024363;28;5052;-73
2024/03/24 01:50:16;;;;;;;;;;;;;;;;;;5014594;28;5001;-74
2024/03/24 01:52:43;;;;;;;;;;;;;;;;;;5016670;28;5119;-72
2024/03/24 01:55:08;;;;;;;;;;;;;;;;;;5020365;28;1128;-74
2024/03/24 01:57:33;;;;;;;;;;;;;;;;;;5037502;28;4929;-73
2024/03/24 01:59:59;;;;;;;;;;;;;;;;;;5026682;28;5055;-75
2024/03/24 02:02:24;;;;;;;;;;;;;;;;;;5017873;28;5055;-73
2024/03/24 02:04:49;;;;;;;;;;;;;;;;;;5018897;28;5176;-75
2024/03/24 02:07:15;;;;;;;;;;;;;;;;;;5023203;28;3380;-73
2024/03/24 02:09:41;;;;;;;;;;;;;;;;;;5021457;28;5068;-73
2024/03/24 02:12:07;;;;;;;;;;;;;;;;;;5013611;28;5347;-73
2024/03/24 02:14:32;;;;;;;;;;;;;;;;;;5025787;28;5219;-73
2024/03/24 02:16:57;;;;;;;;;;;;;;;;;;5021980;28;5083;-74
2024/03/24 02:19:23;;;;;;;;;;;;;;;;;;5021010;28;3356;-73
2024/03/24 02:21:48;;;;;;;;;;;;;;;;;;5016800;28;4931;-72
2024/03/24 02:24:13;;;;;;;;;;;;;;;;;;5020924;28;4506;-73
2024/03/24 02:26:39;;;;;;;;;;;;;;;;;;5020776;28;4703;-71
2024/03/24 02:29:04;;;;;;;;;;;;;;;;;;5017430;28;5108;-75
2024/03/24 02:31:29;;;;;;;;;;;;;;;;;;5021802;28;5021;-75
2024/03/24 02:33:55;;;;;;;;;;;;;;;;;;5021316;28;3508;-74
2024/03/24 02:36:20;;;;;;;;;;;;;;;;;;5022016;28;5074;-75
2024/03/24 02:38:45;;;;;;;;;;;;;;;;;;5018697;28;5126;-75
2024/03/24 02:41:11;;;;;;;;;;;;;;;;;;5017911;28;4566;-73
2024/03/24 02:43:36;;;;;;;;;;;;;;;;;;5019031;28;4520;-74
2024/03/24 02:46:01;;;;;;;;;;;;;;;;;;5020413;28;3583;-74
2024/03/24 02:48:27;;;;;;;;;;;;;;;;;;5014153;28;5174;-73
2024/03/24 02:50:53;;;;;;;;;;;;;;;;;;5021074;28;4666;-75
2024/03/24 02:53:18;;;;;;;;;;;;;;;;;;5020633;28;4497;-73
2024/03/24 02:55:44;;;;;;;;;;;;;;;;;;5018676;28;5123;-73
2024/03/24 02:58:10;;;;;;;;;;;;;;;;;;5017200;28;3464;-74
2024/03/24 03:00:35;;;;;;;;;;;;;;;;;;5016143;28;4777;-75
2024/03/24 03:03:01;;;;;;;;;;;;;;;;;;5019396;28;5053;-73
2024/03/24 03:05:26;;;;;;;;;;;;;;;;;;5024998;28;4878;-74
2024/03/24 03:07:51;;;;;;;;;;;;;;;;;;5019365;28;5007;-74
2024/03/24 03:10:17;;;;;;;;;;;;;;;;;;5021566;28;3459;-75
2024/03/24 03:12:42;;;;;;;;;;;;;;;;;;5025368;28;5137;-70
2024/03/24 03:15:09;;;;;;;;;;;;;;;;;;5022491;28;4997;-70
2024/03/24 03:17:34;;;;;;;;;;;;;;;;;;5023238;28;5613;-74
2024/03/24 03:20:00;;;;;;;;;;;;;;;;;;5015827;28;5116;-73
2024/03/24 03:22:26;;;;;;;;;;;;;;;;;;5031664;28;1141;-74
2024/03/24 03:24:51;;;;;;;;;;;;;;;;;;5028088;28;4972;-74
2024/03/24 03:27:16;;;;;;;;;;;;;;;;;;5028261;28;4761;-74
2024/03/24 03:29:42;;;;;;;;;;;;;;;;;;5026305;28;4837;-74
2024/03/24 03:32:07;;;;;;;;;;;;;;;;;;5026733;28;5462;-73
2024/03/24 03:34:32;;;;;;;;;;;;;;;;;;5021322;28;5108;-74
2024/03/24 03:36:58;;;;;;;;;;;;;;;;;;5025289;28;3356;-72
2024/03/24 03:39:24;;;;;;;;;;;;;;;;;;5022908;28;5213;-73
2024/03/24 03:41:52;;;;;;;;;;;;;;;;;;5022862;28;4904;-74
2024/03/24 03:44:17;;;;;;;;;;;;;;;;;;5021438;28;5267;-74
2024/03/24 03:46:43;;;;;;;;;;;;;;;;;;5019059;28;5020;-75
2024/03/24 03:49:14;;;;;;;;;;;;;;;;;;5022492;28;1161;-74
2024/03/24 03:51:39;;;;;;;;;;;;;;;;;;5017421;28;4639;-69
2024/03/24 03:54:05;;;;;;;;;;;;;;;;;;5023433;28;5400;-73
2024/03/24 03:56:30;;;;;;;;;;;;;;;;;;5018009;28;4656;-73
2024/03/24 03:58:56;;;;;;;;;;;;;;;;;;5024917;28;5407;-73
2024/03/24 04:01:21;;;;;;;;;;;;;;;;;;5029319;28;1088;-74
2024/03/24 04:03:46;;;;;;;;;;;;;;;;;;5023464;28;4993;-73
2024/03/24 04:06:12;;;;;;;;;;;;;;;;;;5016189;28;4534;-74
2024/03/24 04:08:39;;;;;;;;;;;;;;;;;;5027251;28;4608;-73
2024/03/24 04:11:05;;;;;;;;;;;;;;;;;;5028856;28;4710;-73
2024/03/24 04:13:30;;;;;;;;;;;;;;;;;;5019213;28;4525;-73
2024/03/24 04:15:55;;;;;;;;;;;;;;;;;;5023243;28;3652;-73
2024/03/24 04:18:21;;;;;;;;;;;;;;;;;;5041716;28;4856;-74
2024/03/24 04:20:46;;;;;;;;;;;;;;;;;;5016089;28;5011;-73
2024/03/24 04:23:11;;;;;;;;;;;;;;;;;;5018046;28;5042;-72
2024/03/24 04:25:37;;;;;;;;;;;;;;;;;;5021211;28;5085;-73
2024/03/24 04:28:02;;;;;;;;;;;;;;;;;;5027447;28;1076;-72
2024/03/24 04:30:32;;;;;;;;;;;;;;;;;;5027442;28;4873;-72
2024/03/24 04:32:58;;;;;;;;;;;;;;;;;;5017420;28;5116;-73
2024/03/24 04:35:23;;;;;;;;;;;;;;;;;;5022675;28;5085;-73
2024/03/24 04:37:49;;;;;;;;;;;;;;;;;;5027523;28;5022;-73
2024/03/24 04:40:14;;;;;;;;;;;;;;;;;;5019846;28;1125;-73
2024/03/24 04:42:40;;;;;;;;;;;;;;;;;;5026771;28;4642;-74
2024/03/24 04:45:07;;;;;;;;;;;;;;;;;;5027553;28;5040;-72
2024/03/24 04:47:33;;;;;;;;;;;;;;;;;;5021947;28;5148;-73
2024/03/24 04:49:58;;;;;;;;;;;;;;;;;;5014839;28;5198;-73
2024/03/24 04:52:24;;;;;;;;;;;;;;;;;;5024158;28;3538;-73
2024/03/24 04:54:50;;;;;;;;;;;;;;;;;;5012699;28;5151;-72
2024/03/24 04:57:16;;;;;;;;;;;;;;;;;;5024497;28;4668;-73
2024/03/24 04:59:42;;;;;;;;;;;;;;;;;;5021682;28;5231;-72
2024/03/24 05:02:08;;;;;;;;;;;;;;;;;;5022718;28;5037;-71
2024/03/24 05:04:35;;;;;;;;;;;;;;;;;;5027556;28;5065;-74
2024/03/24 05:07:00;;;;;;;;;;;;;;;;;;5026239;28;1066;-72
2024/03/24 05:09:26;;;;;;;;;;;;;;;;;;5024470;28;5037;-73
2024/03/24 05:11:51;;;;;;;;;;;;;;;;;;5023686;28;5104;-73
2024/03/24 05:14:17;;;;;;;;;;;;;;;;;;5020787;28;4939;-72
2024/03/24 05:16:42;;;;;;;;;;;;;;;;;;5018145;28;4936;-72
2024/03/24 05:19:07;;;;;;;;;;;;;;;;;;5021889;28;3403;-72
2024/03/24 05:21:34;;;;;;;;;;;;;;;;;;5014652;28;4648;-72
2024/03/24 05:23:59;;;;;;;;;;;;;;;;;;5027410;28;5491;-73
2024/03/24 05:26:25;;;;;;;;;;;;;;;;;;5028231;28;4963;-73
2024/03/24 05:28:50;;;;;;;;;;;;;;;;;;5022338;28;4523;-73
2024/03/24 05:31:15;;;;;;;;;;;;;;;;;;5029159;28;3254;-74
2024/03/24 05:33:41;;;;;;;;;;;;;;;;;;5021214;28;4866;-72
2024/03/24 05:36:07;;;;;;;;;;;;;;;;;;5015272;28;5106;-72
2024/03/24 05:38:33;;;;;;;;;;;;;;;;;;5022296;28;5075;-73
2024/03/24 05:40:59;;;;;;;;;;;;;;;;;;5016586;28;4601;-73
2024/03/24 05:43:24;;;;;;;;;;;;;;;;;;5019638;28;3479;-72
2024/03/24 05:45:52;;;;;;;;;;;;;;;;;;5022836;28;4982;-73
2024/03/24 05:48:18;;;;;;;;;;;;;;;;;;5024576;28;4948;-73
2024/03/24 05:50:43;;;;;;;;;;;;;;;;;;5014996;28;4646;-72
2024/03/24 05:53:08;;;;;;;;;;;;;;;;;;5017911;28;5061;-73
2024/03/24 05:55:34;;;;;;;;;;;;;;;;;;5018114;28;5200;-70
2024/03/24 05:57:59;;;;;;;;;;;;;;;;;;5023743;28;3768;-74
2024/03/24 06:00:24;;;;;;;;;;;;;;;;;;5019731;28;4566;-73
2024/03/24 06:02:50;;;;;;;;;;;;;;;;;;5015292;28;4926;-74
2024/03/24 06:05:15;;;;;;;;;;;;;;;;;;5015712;28;5070;-73
2024/03/24 06:07:40;;;;;;;;;;;;;;;;;;5015459;28;4532;-75
2024/03/24 06:10:07;;;;;;;;;;;;;;;;;;5014407;28;3400;-74
2024/03/24 06:12:33;;;;;;;;;;;;;;;;;;5018652;28;5081;-72
2024/03/24 06:14:58;;;;;;;;;;;;;;;;;;5023499;28;4792;-72
2024/03/24 06:17:24;;;;;;;;;;;;;;;;;;5018058;28;4792;-70
2024/03/24 06:19:49;;;;;;;;;;;;;;;;;;5017216;28;5091;-74
2024/03/24 06:22:14;;;;;;;;;;;;;;;;;;5023489;28;3564;-73
2024/03/24 06:24:40;;;;;;;;;;;;;;;;;;5019853;28;4419;-74
2024/03/24 06:27:05;;;;;;;;;;;;;;;;;;5023524;28;5240;-70
2024/03/24 06:29:32;;;;;;;;;;;;;;;;;;5022687;28;5020;-73
2024/03/24 06:31:57;;;;;;;;;;;;;;;;;;5012909;28;5261;-74
2024/03/24 06:34:23;;;;;;;;;;;;;;;;;;5018469;28;3425;-73
2024/03/24 06:36:48;;;;;;;;;;;;;;;;;;5019927;28;4823;-74
2024/03/24 06:39:13;;;;;;;;;;;;;;;;;;5018471;28;5519;-74
2024/03/24 06:41:39;;;;;;;;;;;;;;;;;;5016199;28;5220;-73
2024/03/24 06:44:12;;;;;;;;;;;;;;;;;;5023336;28;5192;-74
2024/03/24 06:46:38;;;;;;;;;;;;;;;;;;5018071;28;4726;-74
2024/03/24 06:49:03;;;;;;;;;;;;;;;;;;5023023;28;3372;-73
2024/03/24 06:51:28;;;;;;;;;;;;;;;;;;5019588;28;4983;-74
2024/03/24 06:53:54;;;;;;;;;;;;;;;;;;5028475;28;4940;-71
2024/03/24 06:56:19;;;;;;;;;;;;;;;;;;5023045;28;5255;-73
2024/03/24 06:58:44;;;;;;;;;;;;;;;;;;5030847;28;4518;-73
2024/03/24 07:01:09;;;;;;;;;;;;;;;;;;5027381;28;3603;-73
2024/03/24 07:03:35;;;;;;;;;;;;;;;;;;5018618;28;4943;-72
2024/03/24 07:06:00;;;;;;;;;;;;;;;;;;5028218;28;4965;-74
2024/03/24 07:08:25;;;;;;;;;;;;;;;;;;5026751;28;5139;-75
2024/03/24 07:10:52;;;;;;;;;;;;;;;;;;5025969;28;5366;-74
2024/03/24 07:13:17;;;;;;;;;;;;;;;;;;5029328;28;1918;-74
2024/03/24 07:15:42;;;;;;;;;;;;;;;;;;5026378;28;5027;-76
2024/03/24 07:18:08;;;;;;;;;;;;;;;;;;5018680;28;5075;-75
2024/03/24 07:20:33;;;;;;;;;;;;;;;;;;5022027;28;5093;-74
2024/03/24 07:22:59;;;;;;;;;;;;;;;;;;5021497;28;4771;-74
2024/03/24 07:25:24;;;;;;;;;;;;;;;;;;5020001;28;3360;-76
2024/03/24 07:27:50;;;;;;;;;;;;;;;;;;5025746;28;5005;-60
2024/03/24 07:30:15;;;;;;;;;;;;;;;;;;5016239;28;4725;-79
2024/03/24 07:32:40;;;;;;;;;;;;;;;;;;5018392;28;5093;-77
2024/03/24 07:35:06;;;;;;;;;;;;;;;;;;5020304;28;4939;-80
2024/03/24 07:37:32;;;;;;;;;;;;;;;;;;5021608;28;5185;-79
2024/03/24 07:39:58;;;;;;;;;;;;;;;;;;5023314;28;1645;-80
2024/03/24 07:42:23;;;;;;;;;;;;;;;;;;5016609;28;4465;-79
2024/03/24 07:44:48;;;;;;;;;;;;;;;;;;5025349;28;4555;-79
2024/03/24 07:47:14;;;;;;;;;;;;;;;;;;5018085;28;5106;-77
2024/03/24 07:49:39;;;;;;;;;;;;;;;;;;5016155;28;4560;-78
2024/03/24 07:52:04;;;;;;;;;;;;;;;;;;5032644;28;3680;-78
2024/03/24 07:54:30;;;;;;;;;;;;;;;;;;5025102;28;4917;-78
2024/03/24 07:56:55;;;;;;;;;;;;;;;;;;5030147;28;4952;-78
2024/03/24 07:59:21;;;;;;;;;;;;;;;;;;5025944;28;5544;-74
2024/03/24 08:01:46;;;;;;;;;;;;;;;;;;5018937;28;4920;-73
2024/03/24 08:04:11;;;;;;;;;;;;;;;;;;5018124;28;3508;-74
2024/03/24 08:06:37;;;;;;;;;;;;;;;;;;5022039;28;4884;-74
2024/03/24 08:09:05;;;;;;;;;;;;;;;;;;5023382;28;5309;-74
2024/03/24 08:11:30;;;;;;;;;;;;;;;;;;5025865;28;5121;-75
2024/03/24 08:13:56;;;;;;;;;;;;;;;;;;5024034;28;5218;-75
2024/03/24 08:16:22;;;;;;;;;;;;;;;;;;5023720;28;3686;-76
2024/03/24 08:18:48;;;;;;;;;;;;;;;;;;5024143;28;4973;-77
2024/03/24 08:21:15;;;;;;;;;;;;;;;;;;5021285;28;5239;-77
2024/03/24 08:23:40;;;;;;;;;;;;;;;;;;5025746;28;4763;-77
2024/03/24 08:26:06;;;;;;;;;;;;;;;;;;5034525;28;5240;-75
2024/03/24 08:28:31;;;;;;;;;;;;;;;;;;5024929;28;4603;-65
2024/03/24 08:30:56;;;;;;;;;;;;;;;;;;5024633;28;3502;-64
2024/03/24 08:33:22;;;;;;;;;;;;;;;;;;5028151;28;4513;-66
2024/03/24 08:35:47;;;;;;;;;;;;;;;;;;5023672;28;4474;-63
2024/03/24 08:38:13;;;;;;;;;;;;;;;;;;5013310;28;4701;-64
2024/03/24 08:40:38;;;;;;;;;;;;;;;;;;5026833;28;5130;-65
2024/03/24 08:43:04;;;;;;;;;;;;;;;;;;5027212;28;3430;-63
2024/03/24 08:45:29;;;;;;;;;;;;;;;;;;5030223;28;4846;-65
2024/03/24 08:47:54;;;;;;;;;;;;;;;;;;5022859;28;5045;-64
2024/03/24 08:50:20;;;;;;;;;;;;;;;;;;5018039;28;5205;-61
2024/03/24 08:52:45;;;;;;;;;;;;;;;;;;5020477;28;4724;-60
2024/03/24 08:55:10;;;;;;;;;;;;;;;;;;5021566;28;3752;-63
2024/03/24 08:57:39;;;;;;;;;;;;;;;;;;5021347;28;5022;-63
2024/03/24 09:00:05;;;;;;;;;;;;;;;;;;5024502;28;5034;-63
2024/03/24 09:02:30;;;;;;;;;;;;;;;;;;5025898;28;5054;-63
2024/03/24 09:04:56;;;;;;;;;;;;;;;;;;5024222;28;5129;-63
2024/03/24 09:07:21;;;;;;;;;;;;;;;;;;5021205;28;3482;-66
2024/03/24 09:09:47;;;;;;;;;;;;;;;;;;5016847;28;4637;-65
2024/03/24 09:12:13;;;;;;;;;;;;;;;;;;5020670;28;4483;-68
2024/03/24 09:14:38;;;;;;;;;;;;;;;;;;5019274;28;5082;-61
2024/03/24 09:17:04;;;;;;;;;;;;;;;;;;5019765;28;5132;-68
2024/03/24 09:19:29;;;;;;;;;;;;;;;;;;5023802;28;4682;-70
2024/03/24 09:21:54;;;;;;;;;;;;;;;;;;5020458;28;3420;-70
2024/03/24 09:24:20;;;;;;;;;;;;;;;;;;5024864;28;4890;-70
2024/03/24 09:26:46;;;;;;;;;;;;;;;;;;5027821;28;4748;-72
2024/03/24 09:29:11;;;;;;;;;;;;;;;;;;5041457;28;5116;-71
2024/03/24 09:31:36;;;;;;;;;;;;;;;;;;5022680;28;4675;-68
2024/03/24 09:34:02;;;;;;;;;;;;;;;;;;5027134;28;3418;-72
2024/03/24 09:36:28;;;;;;;;;;;;;;;;;;5023234;28;5116;-74
2024/03/24 09:38:53;;;;;;;;;;;;;;;;;;5020114;28;5108;-67
2024/03/24 09:41:18;;;;;;;;;;;;;;;;;;5017269;28;5044;-61
2024/03/24 09:43:44;;;;;;;;;;;;;;;;;;5010937;28;5123;-69
2024/03/24 09:46:09;;;;;;;;;;;;;;;;;;5021301;28;3508;-70
2024/03/24 09:48:35;;;;;;;;;;;;;;;;;;5021608;28;4452;-67
2024/03/24 09:51:00;;;;;;;;;;;;;;;;;;5025210;28;4889;-68
2024/03/24 09:53:26;;;;;;;;;;;;;;;;;;5041130;28;5136;-70
2024/03/24 09:55:52;;;;;;;;;;;;;;;;;;5026671;28;5033;-71
2024/03/24 09:58:18;;;;;;;;;;;;;;;;;;5028324;28;2165;-72
2024/03/24 10:00:43;;;;;;;;;;;;;;;;;;5025725;28;4949;-72
2024/03/24 10:03:09;;;;;;;;;;;;;;;;;;5019374;28;4695;-73
2024/03/24 10:05:36;;;;;;;;;;;;;;;;;;5022967;28;4746;-69
2024/03/24 10:08:02;;;;;;;;;;;;;;;;;;5022612;28;4586;-72
2024/03/24 10:10:28;;;;;;;;;;;;;;;;;;5023203;28;5155;-74
2024/03/24 10:12:53;;;;;;;;;;;;;;;;;;5025355;28;1910;-70
2024/03/24 10:15:19;;;;;;;;;;;;;;;;;;5021252;28;4966;-66
2024/03/24 10:17:45;;;;;;;;;;;;;;;;;;5018974;28;4904;-61
2024/03/24 10:20:13;;;;;;;;;;;;;;;;;;5022417;28;5053;-60
2024/03/24 10:22:39;;;;;;;;;;;;;;;;;;5025495;28;4994;-61
2024/03/24 10:25:09;;;;;;;;;;;;;;;;;;5033233;28;3566;-65
2024/03/24 10:27:35;;;;;;;;;;;;;;;;;;5022499;28;5179;-65
2024/03/24 10:30:00;;;;;;;;;;;;;;;;;;5022886;28;4655;-70
2024/03/24 10:32:25;;;;;;;;;;;;;;;;;;5024444;28;5290;-72
2024/03/24 10:34:51;;;;;;;;;;;;;;;;;;5022693;28;4694;-64
2024/03/24 10:37:16;;;;;;;;;;;;;;;;;;5022525;28;1443;-64
2024/03/24 10:39:42;;;;;;;;;;;;;;;;;;5022660;28;4489;-64
2024/03/24 10:42:09;;;;;;;;;;;;;;;;;;5026691;28;4600;-62
2024/03/24 10:44:37;;;;;;;;;;;;;;;;;;5022732;28;4951;-66
2024/03/24 10:47:02;;;;;;;;;;;;;;;;;;5024113;28;4917;-67
2024/03/24 10:49:28;;;;;;;;;;;;;;;;;;5006135;28;5098;-61
2024/03/24 10:51:53;;;;;;;;;;;;;;;;;;5022217;28;1221;-66
2024/03/24 10:54:19;;;;;;;;;;;;;;;;;;5019919;28;4992;-65
2024/03/24 10:56:46;;;;;;;;;;;;;;;;;;5016663;28;4697;-62
2024/03/24 10:59:11;;;;;;;;;;;;;;;;;;5008118;28;5238;-62
2024/03/24 11:01:37;;;;;;;;;;;;;;;;;;5016514;28;5409;-64
2024/03/24 11:04:03;;;;;;;;;;;;;;;;;;5021958;28;3632;-63
2024/03/24 11:06:28;;;;;;;;;;;;;;;;;;5020212;28;5299;-62
2024/03/24 11:08:54;;;;;;;;;;;;;;;;;;5027017;28;5026;-64
2024/03/24 11:11:19;;;;;;;;;;;;;;;;;;5017384;28;4769;-61
2024/03/24 11:13:45;;;;;;;;;;;;;;;;;;5034796;28;5144;-62
2024/03/24 11:16:10;;;;;;;;;;;;;;;;;;5016055;28;3528;-63
2024/03/24 11:18:36;;;;;;;;;;;;;;;;;;5022187;28;4863;-63
2024/03/24 11:21:02;;;;;;;;;;;;;;;;;;5025383;28;4952;-63
2024/03/24 11:23:34;;;;;;;;;;;;;;;;;;5025750;28;5067;-60
2024/03/24 11:26:01;;;;;;;;;;;;;;;;;;5038877;28;4943;-62
2024/03/24 11:28:39;;;;;;;;;;;;;;;;;;5012062;28;3228;-62
2024/03/24 11:31:20;;;;;;;;;;;;;;;;;;5026795;28;5124;-64
2024/03/24 11:34:03;;;;;;;;;;;;;;;;;;5031470;28;4820;-68
2024/03/24 11:36:30;;;;;;;;;;;;;;;;;;5025730;28;4547;-68
2024/03/24 11:38:56;;;;;;;;;;;;;;;;;;5024741;28;4943;-68
2024/03/24 11:41:23;;;;;;;;;;;;;;;;;;5018221;28;4975;-68
2024/03/24 11:43:59;;;;;;;;;;;;;;;;;;5018335;28;4612;-67
2024/03/24 11:46:26;;;;;;;;;;;;;;;;;;5013988;28;3576;-67
2024/03/24 11:48:57;;;;;;;;;;;;;;;;;;5025163;28;4891;-68
2024/03/24 11:51:25;;;;;;;;;;;;;;;;;;5022598;28;5016;-67
2024/03/24 11:53:54;;;;;;;;;;;;;;;;;;5027245;28;5143;-67
2024/03/24 11:56:20;;;;;;;;;;;;;;;;;;5019450;28;4784;-68
2024/03/24 11:58:48;;;;;;;;;;;;;;;;;;5038658;28;4930;-68
2024/03/24 12:01:14;;;;;;;;;;;;;;;;;;5012334;28;3386;-67
2024/03/24 12:03:39;;;;;;;;;;;;;;;;;;5029788;28;4664;-68
2024/03/24 12:06:06;;;;;;;;;;;;;;;;;;5023913;28;5060;-59
2024/03/24 12:08:32;;;;;;;;;;;;;;;;;;5031644;28;5562;-59
2024/03/24 12:10:57;;;;;;;;;;;;;;;;;;5014541;28;4558;-59
2024/03/24 12:13:23;;;;;;;;;;;;;;;;;;5008154;28;3713;-59
2024/03/24 12:15:48;;;;;;;;;;;;;;;;;;5030558;28;4577;-60
2024/03/24 12:18:13;;;;;;;;;;;;;;;;;;5027270;28;4510;-59
2024/03/24 12:20:39;;;;;;;;;;;;;;;;;;5025256;28;5077;-60
2024/03/24 12:23:05;;;;;;;;;;;;;;;;;;5018970;28;5140;-61
2024/03/24 12:25:30;;;;;;;;;;;;;;;;;;5022062;28;4994;-60
2024/03/24 12:27:55;;;;;;;;;;;;;;;;;;5028348;28;3461;-59
2024/03/24 12:30:21;;;;;;;;;;;;;;;;;;5038561;28;4973;-60
2024/03/24 12:32:47;;;;;;;;;;;;;;;;;;5032806;28;4998;-59
2024/03/24 12:35:14;;;;;;;;;;;;;;;;;;5029169;28;4967;-60
2024/03/24 12:37:39;;;;;;;;;;;;;;;;;;5029618;28;4538;-60
2024/03/24 12:40:05;;;;;;;;;;;;;;;;;;5020704;28;3461;-62
2024/03/24 12:42:31;;;;;;;;;;;;;;;;;;5022175;28;4927;-61
2024/03/24 12:45:09;;;;;;;;;;;;;;;;;;5020690;28;5264;-60
2024/03/24 12:47:34;;;;;;;;;;;;;;;;;;5023706;28;5126;-60
2024/03/24 12:49:59;;;;;;;;;;;;;;;;;;5023182;28;4645;-60
2024/03/24 12:52:26;;;;;;;;;;;;;;;;;;5029291;28;3782;-62
2024/03/24 12:54:51;;;;;;;;;;;;;;;;;;5016293;28;5180;-59
2024/03/24 12:57:17;;;;;;;;;;;;;;;;;;5020086;28;4512;-74
2024/03/24 12:59:52;;;;;;;;;;;;;;;;;;5017033;28;5205;-66
2024/03/24 13:02:17;;;;;;;;;;;;;;;;;;5018481;28;4992;-66
2024/03/24 13:04:42;;;;;;;;;;;;;;;;;;5014461;28;4501;-65
2024/03/24 13:07:08;;;;;;;;;;;;;;;;;;5028154;28;1121;-65
2024/03/24 13:09:33;;;;;;;;;;;;;;;;;;5026192;28;4807;-64
2024/03/24 13:11:59;;;;;;;;;;;;;;;;;;5026492;28;4994;-66
2024/03/24 13:14:24;;;;;;;;;;;;;;;;;;5013583;28;4709;-70
2024/03/24 13:17:00;;;;;;;;;;;;;;;;;;5025057;28;4631;-69
2024/03/24 13:19:26;;;;;;;;;;;;;;;;;;5020742;28;3685;-65
2024/03/24 13:21:51;;;;;;;;;;;;;;;;;;5007510;28;4939;-65
2024/03/24 13:24:19;;;;;;;;;;;;;;;;;;5023789;28;4755;-66
2024/03/24 13:26:46;;;;;;;;;;;;;;;;;;5018984;28;5105;-65
2024/03/24 13:29:11;;;;;;;;;;;;;;;;;;5036384;28;5145;-65
2024/03/24 13:31:36;;;;;;;;;;;;;;;;;;5024499;28;4988;-65
2024/03/24 13:34:02;;;;;;;;;;;;;;;;;;5023015;28;3526;-65
2024/03/24 13:36:42;;;;;;;;;;;;;;;;;;5029155;28;4995;-65
2024/03/24 13:39:13;;;;;;;;;;;;;;;;;;5015025;28;6263;-64
2024/03/24 13:42:00;;;;;;;;;;;;;;;;;;5017110;28;4520;-63
2024/03/24 13:44:44;;;;;;;;;;;;;;;;;;5022145;28;3447;-60
2024/03/24 13:47:28;;;;;;;;;;;;;;;;;;5020551;28;5140;-67
2024/03/24 13:49:54;;;;;;;;;;;;;;;;;;5019980;28;5015;-61
2024/03/24 13:52:19;;;;;;;;;;;;;;;;;;5026439;28;4687;-62
2024/03/24 13:54:44;;;;;;;;;;;;;;;;;;5008177;28;4770;-69
2024/03/24 13:57:10;;;;;;;;;;;;;;;;;;5020756;28;4687;-66
2024/03/24 13:59:35;;;;;;;;;;;;;;;;;;5024855;28;5128;-66
2024/03/24 14:02:01;;;;;;;;;;;;;;;;;;5016085;28;3437;-64
2024/03/24 14:04:26;;;;;;;;;;;;;;;;;;5030066;28;5029;-65
2024/03/24 14:06:51;;;;;;;;;;;;;;;;;;5020508;28;4990;-64
2024/03/24 14:09:17;;;;;;;;;;;;;;;;;;5018380;28;5248;-65
2024/03/24 14:11:42;;;;;;;;;;;;;;;;;;5023419;28;5114;-65
2024/03/24 14:14:37;;;;;;;;;;;;;;;;;;5027782;28;3427;-65
2024/03/24 14:17:05;;;;;;;;;;;;;;;;;;5009469;28;4727;-67
2024/03/24 14:19:30;;;;;;;;;;;;;;;;;;5025121;28;4441;-66
2024/03/24 14:22:08;;;;;;;;;;;;;;;;;;5024421;28;5142;-65
2024/03/24 14:24:33;;;;;;;;;;;;;;;;;;5019398;28;4485;-66
2024/03/24 14:26:59;;;;;;;;;;;;;;;;;;5019819;28;4898;-65
2024/03/24 14:29:24;;;;;;;;;;;;;;;;;;5025322;28;1033;-65
2024/03/24 14:31:49;;;;;;;;;;;;;;;;;;5017275;28;4882;-66
2024/03/24 14:34:15;;;;;;;;;;;;;;;;;;5023713;28;6098;-65
2024/03/24 14:36:46;;;;;;;;;;;;;;;;;;5026740;28;4926;-66
2024/03/24 14:39:30;;;;;;;;;;;;;;;;;;5026447;28;5163;-65
2024/03/24 14:42:01;;;;;;;;;;;;;;;;;;5018361;28;4900;-66
2024/03/24 14:44:42;;;;;;;;;;;;;;;;;;5020460;28;3355;-66
2024/03/24 14:47:24;;;;;;;;;;;;;;;;;;5019451;28;5042;-66
2024/03/24 14:49:50;;;;;;;;;;;;;;;;;;5018560;28;4732;-65
2024/03/24 14:52:15;;;;;;;;;;;;;;;;;;5018319;28;4659;-65
2024/03/24 14:54:41;;;;;;;;;;;;;;;;;;5025742;28;5122;-65
2024/03/24 14:57:06;;;;;;;;;;;;;;;;;;5023681;28;4713;-65
2024/03/24 14:59:31;;;;;;;;;;;;;;;;;;5019512;28;3365;-65
2024/03/24 15:01:57;;;;;;;;;;;;;;;;;;5024186;28;4450;-66
2024/03/24 15:04:22;;;;;;;;;;;;;;;;;;4999232;28;4708;-66
2024/03/24 15:06:48;;;;;;;;;;;;;;;;;;5031380;28;5272;-66
2024/03/24 15:09:14;;;;;;;;;;;;;;;;;;5026113;28;4744;-65
2024/03/24 15:11:39;;;;;;;;;;;;;;;;;;5020092;28;4655;-65
2024/03/24 15:14:04;;;;;;;;;;;;;;;;;;5031735;28;1989;-65
2024/03/24 15:16:30;;;;;;;;;;;;;;;;;;5030041;28;4636;-64
2024/03/24 15:18:55;;;;;;;;;;;;;;;;;;5027359;28;5134;-65
2024/03/24 15:21:21;;;;;;;;;;;;;;;;;;5031272;28;5053;-65
2024/03/24 15:23:46;;;;;;;;;;;;;;;;;;5021131;28;5081;-65
2024/03/24 15:26:12;;;;;;;;;;;;;;;;;;5024467;28;3348;-65
2024/03/24 15:28:37;;;;;;;;;;;;;;;;;;5023631;28;5121;-66
2024/03/24 15:31:03;;;;;;;;;;;;;;;;;;5029798;28;5104;-65
2024/03/24 15:33:30;;;;;;;;;;;;;;;;;;5025733;28;4983;-65
2024/03/24 15:35:55;;;;;;;;;;;;;;;;;;5029671;28;4715;-66
2024/03/24 15:38:21;;;;;;;;;;;;;;;;;;5024627;28;1140;-65
2024/03/24 15:40:49;;;;;;;;;;;;;;;;;;5028944;28;5014;-65
2024/03/24 15:43:17;;;;;;;;;;;;;;;;;;5025104;28;5096;-65
2024/03/24 15:45:42;;;;;;;;;;;;;;;;;;5028927;28;5120;-65
2024/03/24 15:48:08;;;;;;;;;;;;;;;;;;5026309;28;4582;-65
2024/03/24 15:50:33;;;;;;;;;;;;;;;;;;5017516;28;3599;-64
2024/03/24 15:52:59;;;;;;;;;;;;;;;;;;5025432;28;4661;-65
2024/03/24 15:55:25;;;;;;;;;;;;;;;;;;5027600;28;5286;-65
2024/03/24 15:58:13;;;;;;;;;;;;;;;;;;5007119;28;5272;-65
2024/03/24 16:00:43;;;;;;;;;;;;;;;;;;5020823;28;4557;-66
2024/03/24 16:03:08;;;;;;;;;;;;;;;;;;5027439;28;4582;-67
2024/03/24 16:05:34;;;;;;;;;;;;;;;;;;5023423;28;1184;-66
2024/03/24 16:07:59;;;;;;;;;;;;;;;;;;5021454;28;4875;-64
2024/03/24 16:10:37;;;;;;;;;;;;;;;;;;5029702;28;5089;-65
2024/03/24 16:13:08;;;;;;;;;;;;;;;;;;5029344;28;5064;-65
2024/03/24 16:15:33;;;;;;;;;;;;;;;;;;5032982;28;5147;-65
2024/03/24 16:17:58;;;;;;;;;;;;;;;;;;5018240;28;4698;-67
2024/03/24 16:20:24;;;;;;;;;;;;;;;;;;5026443;28;4025;-64
2024/03/24 16:22:49;;;;;;;;;;;;;;;;;;5016560;28;4930;-66
2024/03/24 16:25:15;;;;;;;;;;;;;;;;;;5021441;28;4882;-64
2024/03/24 16:27:40;;;;;;;;;;;;;;;;;;5023385;28;4995;-64
2024/03/24 16:30:07;;;;;;;;;;;;;;;;;;5027337;28;4489;-65
2024/03/24 16:32:32;;;;;;;;;;;;;;;;;;5023697;28;3440;-64
2024/03/24 16:34:58;;;;;;;;;;;;;;;;;;5025853;28;4450;-65
2024/03/24 16:37:23;;;;;;;;;;;;;;;;;;5029306;28;5620;-65
2024/03/24 16:39:48;;;;;;;;;;;;;;;;;;5023146;28;5047;-64
2024/03/24 16:42:14;;;;;;;;;;;;;;;;;;5027197;28;4711;-64
2024/03/24 16:44:40;;;;;;;;;;;;;;;;;;5026939;28;4477;-65
2024/03/24 16:47:05;;;;;;;;;;;;;;;;;;5026755;28;3563;-64
2024/03/24 16:49:31;;;;;;;;;;;;;;;;;;5023995;28;4672;-64
2024/03/24 16:51:56;;;;;;;;;;;;;;;;;;5029375;28;5134;-65
2024/03/24 16:54:21;;;;;;;;;;;;;;;;;;5028828;28;4621;-64
2024/03/24 16:56:47;;;;;;;;;;;;;;;;;;5027309;28;4530;-64